Close Search

Base
°C
Summit
°C

WEATHER AT A GLANCE

Image Slideshow

RMR Village

Revelstoke Mountain Resort -  RMR Village Webcam

Top of The Stoke

Revelstoke Mountain Resort -  Top of The Stoke Webcam

Top of Stellar

Revelstoke Mountain Resort -  Top of Stellar Webcam

Mackenzie Outpost

Revelstoke Mountain Resort -  Mackenzie Outpost Webcam

Ripper

Revelstoke Mountain Resort -  Ripper Webcam
Base
°C
Summit
°C
Wind (Summit)
km/h

Today's Forecast

Subpeak Weather

Time Avg. Air Temp Dew Point Avg. Rel Humidity Avg. 2 Min Wind Speed Max Gust Velocity MGV Time MGV Direction Avg. Spot Wind Velocity
2026-05-10 05:45:003° C-1° C72%24 km/h28 km/h05:42:00S24 km/h
04:45:003° C-1° C75%27 km/h36 km/h04:42:00S28 km/h
03:45:004° C-1° C73%27 km/h35 km/h03:43:00S26 km/h
02:45:004° C-1° C71%30 km/h36 km/h02:44:00S30 km/h
01:45:004° C-1° C70%29 km/h33 km/h01:43:00S28 km/h
00:45:005° C-0° C70%32 km/h38 km/h00:43:00SE33 km/h
23:45:005° C-1° C67%28 km/h32 km/h23:41:00S27 km/h
22:45:005° C-1° C66%30 km/h33 km/h22:43:00SE29 km/h
21:45:005° C-2° C65%25 km/h30 km/h21:41:00S26 km/h
20:45:005° C-2° C61%18 km/h21 km/h20:44:00S16 km/h
19:45:005° C-1° C60%19 km/h20 km/h19:42:00S18 km/h
18:45:006° C-2° C62%11 km/h13 km/h18:45:00SW9 km/h
17:45:006° C-2° C60%16 km/h25 km/h17:41:00S16 km/h
16:45:006° C-2° C61%10 km/h23 km/h16:41:00W15 km/h
15:45:005° C-2° C63%15 km/h23 km/h15:43:00S14 km/h
14:45:005° C-2° C61%10 km/h19 km/h14:43:00S11 km/h
13:45:004° C-1° C70%14 km/h18 km/h13:44:00SW13 km/h
12:45:004° C0° C81%10 km/h14 km/h12:42:00SW9 km/h
11:45:002° C1° C91%3 km/h8 km/h11:41:00SW3 km/h
10:45:002° C1° C94%0 km/h0 km/h10:45:00E0 km/h
09:45:003° C1° C87%0 km/h2 km/h09:44:00SW0 km/h
08:45:001° C0° C93%2 km/h4 km/h08:43:00E2 km/h
07:45:001° C-1° C89%0 km/h0 km/h07:41:00W0 km/h
06:45:00-0° C-0° C100%10 km/h12 km/h06:43:00NW10 km/h

Time Avg. Air Temp Dew Point Avg. Rel Humidity Avg. 2 Min Wind Speed Max Gust Velocity MGV Time MGV Direction Avg. Spot Wind Velocity
2026-05-10 05:45:003° C-1° C72%24 km/h28 km/h05:42:00S24 km/h
05:40:003° C-1° C73%23 km/h29 km/h05:36:00S24 km/h
05:35:003° C-1° C72%23 km/h29 km/h05:34:00S26 km/h
05:30:003° C-2° C71%28 km/h37 km/h05:29:00S28 km/h
05:25:004° C-1° C71%24 km/h38 km/h05:23:00S28 km/h
05:20:003° C-1° C74%29 km/h34 km/h05:20:00S28 km/h
05:15:003° C-1° C75%26 km/h32 km/h05:13:00S26 km/h
05:10:003° C-1° C75%26 km/h29 km/h05:09:00S26 km/h
05:05:003° C-1° C75%30 km/h34 km/h05:05:00S28 km/h
05:00:003° C-1° C75%24 km/h34 km/h04:58:00S26 km/h
04:55:003° C-1° C75%26 km/h35 km/h04:52:00S28 km/h
04:50:003° C-1° C75%28 km/h36 km/h04:49:00S27 km/h
04:45:003° C-1° C75%27 km/h36 km/h04:42:00S28 km/h

We value your privacy
We use cookies to enhance your browsing experience, serve personalized ads or content, and analyze our traffic. By clicking "Allow Cookies", you consent to our use of cookies. For additional details view our Privacy Policy.
Cookie preferences

You can control how your data is used on our website. Learn more below about the cookies we use by reviewing our Privacy Policy.

Your cookie preferences have been saved.